Time;durP1;ratioP1;P1;durP2;ratioP2;P2;SDS_P1;SDS_P2;PMS_P1;PMS_P2;Temp;Humidity;BMP_temperature;BMP_pressure;BME280_temperature;BME280_humidity;BME280_pressure;Samples;Min_cycle;Max_cycle;Signal;HPM_P1;HPM_P2
2022/07/15 00:02:43;;;;;;;1.67;1.40;;;;;;;;;;5108705;28;20279;-59
2022/07/15 00:05:31;;;;;;;2.20;1.37;;;;;;;;;;5106336;28;20361;-59
2022/07/15 00:08:18;;;;;;;1.43;1.03;;;;;;;;;;5108945;28;20664;-59
2022/07/15 00:11:06;;;;;;;1.40;1.00;;;;;;;;;;5109191;28;20232;-59
2022/07/15 00:13:53;;;;;;;1.37;0.87;;;;;;;;;;5108925;28;20208;-58
2022/07/15 00:16:39;;;;;;;1.40;1.27;;;;;;;;;;5108568;28;20617;-59
2022/07/15 00:19:26;;;;;;;1.13;1.03;;;;;;;;;;5110343;28;20205;-58
2022/07/15 00:22:15;;;;;;;1.53;1.30;;;;;;;;;;5109801;28;20209;-59
2022/07/15 00:25:02;;;;;;;1.03;0.80;;;;;;;;;;5109298;28;20965;-58
2022/07/15 00:27:54;;;;;;;1.63;1.13;;;;;;;;;;5106369;28;20209;-58
2022/07/15 00:30:42;;;;;;;1.27;0.80;;;;;;;;;;5109619;28;20228;-58
2022/07/15 00:33:29;;;;;;;1.77;1.17;;;;;;;;;;5109530;28;20209;-58
2022/07/15 00:36:16;;;;;;;2.23;1.10;;;;;;;;;;5106784;28;20913;-59
2022/07/15 00:39:04;;;;;;;1.50;1.10;;;;;;;;;;5107214;28;20205;-59
2022/07/15 00:41:51;;;;;;;1.17;1.03;;;;;;;;;;5109583;28;20209;-58
2022/07/15 00:44:39;;;;;;;1.50;1.07;;;;;;;;;;5106833;28;20301;-58
2022/07/15 00:47:25;;;;;;;1.53;1.03;;;;;;;;;;5108103;28;20773;-58
2022/07/15 00:50:13;;;;;;;1.40;0.70;;;;;;;;;;5107764;28;20353;-60
2022/07/15 00:53:05;;;;;;;1.53;1.10;;;;;;;;;;5109004;28;20198;-58
2022/07/15 00:56:00;;;;;;;1.57;1.20;;;;;;;;;;5106543;28;20214;-58
2022/07/15 00:58:48;;;;;;;1.10;0.83;;;;;;;;;;5107717;28;20209;-58
2022/07/15 01:01:36;;;;;;;1.73;0.90;;;;;;;;;;5107945;28;20686;-58
2022/07/15 01:04:24;;;;;;;1.30;1.10;;;;;;;;;;5105807;28;20201;-58
2022/07/15 01:07:11;;;;;;;2.10;1.30;;;;;;;;;;5108542;28;20207;-58
2022/07/15 01:09:58;;;;;;;1.10;1.00;;;;;;;;;;5108093;28;20292;-58
2022/07/15 01:12:47;;;;;;;1.73;1.10;;;;;;;;;;5108901;28;20291;-58
2022/07/15 01:15:34;;;;;;;1.10;0.90;;;;;;;;;;5107802;28;20237;-58
2022/07/15 01:18:21;;;;;;;1.00;0.90;;;;;;;;;;5108517;28;20232;-58
2022/07/15 01:21:10;;;;;;;1.33;1.00;;;;;;;;;;5108479;28;20580;-59
2022/07/15 01:23:57;;;;;;;1.23;1.10;;;;;;;;;;5107839;28;20206;-59
2022/07/15 01:26:44;;;;;;;0.77;0.70;;;;;;;;;;5106892;28;20213;-58
2022/07/15 01:29:31;;;;;;;1.57;1.33;;;;;;;;;;5109213;28;20209;-59
2022/07/15 01:32:18;;;;;;;1.50;1.10;;;;;;;;;;5107136;28;20221;-58
2022/07/15 01:35:06;;;;;;;1.30;1.20;;;;;;;;;;5105867;28;20238;-58
2022/07/15 01:37:54;;;;;;;0.83;0.83;;;;;;;;;;5107723;28;20217;-58
2022/07/15 01:40:41;;;;;;;1.20;1.10;;;;;;;;;;5107149;28;20203;-58
2022/07/15 01:43:28;;;;;;;1.23;1.00;;;;;;;;;;5107710;28;20205;-58
2022/07/15 01:46:15;;;;;;;1.60;1.50;;;;;;;;;;5106384;28;20216;-58
2022/07/15 01:52:09;;;;;;;1.33;0.87;;;;;;;;;;5108254;28;20229;-58
2022/07/15 01:54:57;;;;;;;1.67;0.90;;;;;;;;;;5108599;28;20200;-58
2022/07/15 01:57:44;;;;;;;1.20;1.00;;;;;;;;;;5106292;28;20204;-58
2022/07/15 02:00:31;;;;;;;0.90;0.80;;;;;;;;;;5107776;28;20283;-58
2022/07/15 02:03:18;;;;;;;1.37;1.10;;;;;;;;;;5103706;28;20680;-59
2022/07/15 02:06:05;;;;;;;1.37;1.20;;;;;;;;;;5108906;28;20593;-59
2022/07/15 02:08:52;;;;;;;1.30;0.87;;;;;;;;;;5112258;28;20591;-58
2022/07/15 02:11:40;;;;;;;1.10;1.10;;;;;;;;;;5111195;28;20224;-59
2022/07/15 02:14:27;;;;;;;0.87;0.87;;;;;;;;;;5113814;28;20247;-58
2022/07/15 02:17:14;;;;;;;1.60;1.07;;;;;;;;;;5112546;28;20204;-58
2022/07/15 02:20:01;;;;;;;1.50;0.90;;;;;;;;;;5112368;28;20216;-59
2022/07/15 02:22:48;;;;;;;0.97;0.80;;;;;;;;;;5108958;28;20197;-59
2022/07/15 02:25:35;;;;;;;1.87;1.00;;;;;;;;;;5108066;28;20207;-59
2022/07/15 02:28:24;;;;;;;1.00;0.73;;;;;;;;;;5105519;28;20200;-58
2022/07/15 02:31:11;;;;;;;1.10;0.70;;;;;;;;;;5108510;28;20226;-58
2022/07/15 02:33:58;;;;;;;1.17;0.60;;;;;;;;;;5109535;28;20590;-58
2022/07/15 02:36:45;;;;;;;0.67;0.67;;;;;;;;;;5090829;28;20368;-59
2022/07/15 02:39:32;;;;;;;1.70;0.77;;;;;;;;;;5071840;28;20268;-59
2022/07/15 02:42:19;;;;;;;0.77;0.77;;;;;;;;;;5070324;28;20580;-59
2022/07/15 02:45:08;;;;;;;1.20;0.70;;;;;;;;;;5069619;28;20214;-58
2022/07/15 02:47:56;;;;;;;0.90;0.67;;;;;;;;;;5070932;28;20213;-59
2022/07/15 02:50:44;;;;;;;0.60;0.57;;;;;;;;;;5071870;28;20770;-58
2022/07/15 02:53:31;;;;;;;0.83;0.80;;;;;;;;;;5070890;28;20215;-59
2022/07/15 02:56:19;;;;;;;1.00;0.60;;;;;;;;;;5070431;28;20587;-58
2022/07/15 02:59:05;;;;;;;0.87;0.60;;;;;;;;;;5070006;28;20221;-58
2022/07/15 03:01:54;;;;;;;0.70;0.70;;;;;;;;;;5066459;28;20208;-58
2022/07/15 03:04:41;;;;;;;0.60;0.60;;;;;;;;;;5070226;28;20210;-58
2022/07/15 03:07:28;;;;;;;0.57;0.50;;;;;;;;;;5070827;28;20203;-58
2022/07/15 03:10:16;;;;;;;0.70;0.60;;;;;;;;;;5068796;28;20692;-58
2022/07/15 03:13:04;;;;;;;0.40;0.40;;;;;;;;;;5089595;28;20658;-58
2022/07/15 03:15:50;;;;;;;0.60;0.60;;;;;;;;;;5089887;28;20260;-58
2022/07/15 03:18:39;;;;;;;0.97;0.80;;;;;;;;;;5089870;28;20212;-58
2022/07/15 03:21:26;;;;;;;0.57;0.53;;;;;;;;;;5089855;28;20195;-58
2022/07/15 03:24:13;;;;;;;0.43;0.43;;;;;;;;;;5089353;28;20214;-58
2022/07/15 03:27:00;;;;;;;1.00;0.53;;;;;;;;;;5090185;28;20270;-58
2022/07/15 03:29:47;;;;;;;0.90;0.50;;;;;;;;;;5090802;28;20214;-58
2022/07/15 03:32:34;;;;;;;0.50;0.50;;;;;;;;;;5090947;28;20398;-59
2022/07/15 03:35:22;;;;;;;0.30;0.30;;;;;;;;;;5090126;28;20213;-60
2022/07/15 03:38:10;;;;;;;0.40;0.40;;;;;;;;;;5090634;28;20214;-58
2022/07/15 03:40:57;;;;;;;0.50;0.50;;;;;;;;;;5089912;28;20202;-58
2022/07/15 03:43:44;;;;;;;0.40;0.40;;;;;;;;;;5089330;28;20220;-58
2022/07/15 03:46:31;;;;;;;0.50;0.50;;;;;;;;;;5089554;28;20522;-58
2022/07/15 03:49:18;;;;;;;0.50;0.50;;;;;;;;;;5088738;28;20201;-58
2022/07/15 03:52:06;;;;;;;0.20;0.20;;;;;;;;;;5090451;28;20283;-58
2022/07/15 03:54:53;;;;;;;0.40;0.30;;;;;;;;;;5085831;28;20210;-58
2022/07/15 03:57:40;;;;;;;0.40;0.33;;;;;;;;;;5088517;28;20343;-59
2022/07/15 04:00:27;;;;;;;0.30;0.30;;;;;;;;;;5088926;28;20198;-58
2022/07/15 04:03:16;;;;;;;0.43;0.30;;;;;;;;;;5090507;28;20275;-59
2022/07/15 04:06:03;;;;;;;0.40;0.40;;;;;;;;;;5089901;28;20260;-61
2022/07/15 04:08:52;;;;;;;0.50;0.50;;;;;;;;;;5087182;28;20593;-58
2022/07/15 04:11:41;;;;;;;0.40;0.40;;;;;;;;;;5089063;28;20219;-60
2022/07/15 04:14:28;;;;;;;0.40;0.40;;;;;;;;;;5089235;28;20663;-58
2022/07/15 04:17:15;;;;;;;0.43;0.40;;;;;;;;;;5089067;28;20209;-59
2022/07/15 04:20:02;;;;;;;0.50;0.50;;;;;;;;;;5089580;28;20208;-59
2022/07/15 04:22:49;;;;;;;0.40;0.40;;;;;;;;;;5090549;28;20211;-58
2022/07/15 04:25:37;;;;;;;0.70;0.40;;;;;;;;;;5088928;28;20274;-58
2022/07/15 04:28:25;;;;;;;0.43;0.30;;;;;;;;;;5086703;28;20211;-58
2022/07/15 04:31:12;;;;;;;0.40;0.30;;;;;;;;;;5087569;28;20241;-60
2022/07/15 04:33:59;;;;;;;0.20;0.20;;;;;;;;;;5084123;28;20219;-58
2022/07/15 04:36:46;;;;;;;0.40;0.40;;;;;;;;;;5098932;28;20322;-58
2022/07/15 04:39:33;;;;;;;0.37;0.37;;;;;;;;;;5108623;28;20671;-58
2022/07/15 04:42:21;;;;;;;0.30;0.30;;;;;;;;;;5109328;28;20687;-58
2022/07/15 04:45:09;;;;;;;0.27;0.20;;;;;;;;;;5109909;28;20200;-58
2022/07/15 04:47:56;;;;;;;0.37;0.37;;;;;;;;;;5106130;28;20214;-58
2022/07/15 04:50:51;;;;;;;0.20;0.20;;;;;;;;;;5108257;28;20287;-58
2022/07/15 04:53:38;;;;;;;0.20;0.20;;;;;;;;;;5108646;28;20253;-59
2022/07/15 04:56:25;;;;;;;1.27;0.20;;;;;;;;;;5109059;28;20212;-59
2022/07/15 04:59:13;;;;;;;0.40;0.40;;;;;;;;;;5107884;28;20212;-58
2022/07/15 05:02:00;;;;;;;0.30;0.30;;;;;;;;;;5107348;28;20350;-58
2022/07/15 05:04:47;;;;;;;0.17;0.17;;;;;;;;;;5109536;28;20301;-59
2022/07/15 05:07:34;;;;;;;0.20;0.20;;;;;;;;;;5109078;28;20212;-58
2022/07/15 05:10:21;;;;;;;0.30;0.30;;;;;;;;;;5107390;28;20208;-59
2022/07/15 05:13:08;;;;;;;0.27;0.27;;;;;;;;;;5101250;28;20220;-59
2022/07/15 05:15:57;;;;;;;0.30;0.30;;;;;;;;;;5108599;28;20665;-59
2022/07/15 05:18:44;;;;;;;0.30;0.30;;;;;;;;;;5108883;28;20215;-59
2022/07/15 05:21:31;;;;;;;0.10;0.10;;;;;;;;;;5109064;28;20227;-58
2022/07/15 05:24:19;;;;;;;0.13;0.13;;;;;;;;;;5108824;28;20212;-58
2022/07/15 05:27:06;;;;;;;0.20;0.20;;;;;;;;;;5106250;28;20666;-58
2022/07/15 05:29:53;;;;;;;0.10;0.10;;;;;;;;;;5107338;28;20196;-58
2022/07/15 05:32:42;;;;;;;0.30;0.30;;;;;;;;;;5107337;28;20331;-59
2022/07/15 05:35:29;;;;;;;0.23;0.23;;;;;;;;;;5109082;28;20207;-58
2022/07/15 05:38:16;;;;;;;0.37;0.37;;;;;;;;;;5108334;28;20296;-58
2022/07/15 05:41:03;;;;;;;0.20;0.20;;;;;;;;;;5108333;28;20206;-59
2022/07/15 05:43:50;;;;;;;0.20;0.20;;;;;;;;;;5103005;28;20218;-58
2022/07/15 05:46:37;;;;;;;0.37;0.37;;;;;;;;;;5107583;28;20222;-59
2022/07/15 05:49:26;;;;;;;0.20;0.20;;;;;;;;;;5106174;28;20211;-58
2022/07/15 05:52:13;;;;;;;0.50;0.30;;;;;;;;;;5107152;28;20238;-59
2022/07/15 05:55:00;;;;;;;0.27;0.20;;;;;;;;;;5106427;28;20228;-58
2022/07/15 05:57:47;;;;;;;0.23;0.23;;;;;;;;;;5105741;28;20675;-58
2022/07/15 06:00:35;;;;;;;0.20;0.20;;;;;;;;;;5105188;28;20197;-58
2022/07/15 06:03:22;;;;;;;0.20;0.20;;;;;;;;;;5105606;28;20205;-58
2022/07/15 06:06:10;;;;;;;0.15;0.15;;;;;;;;;;5104704;28;20221;-58
2022/07/15 06:08:57;;;;;;;0.20;0.20;;;;;;;;;;5107146;28;20569;-58
2022/07/15 06:11:45;;;;;;;0.30;0.30;;;;;;;;;;5107490;28;20221;-58
2022/07/15 06:14:32;;;;;;;0.20;0.20;;;;;;;;;;5105172;28;20556;-59
2022/07/15 06:17:19;;;;;;;0.30;0.30;;;;;;;;;;5105795;28;20205;-58
2022/07/15 06:20:07;;;;;;;0.20;0.20;;;;;;;;;;5109572;28;20201;-59
2022/07/15 06:22:55;;;;;;;0.35;0.28;;;;;;;;;;5106921;28;20299;-58
2022/07/15 06:25:42;;;;;;;0.30;0.30;;;;;;;;;;5105886;28;20209;-58
2022/07/15 06:28:30;;;;;;;0.20;0.20;;;;;;;;;;5107342;28;20220;-58
2022/07/15 06:31:17;;;;;;;0.10;0.10;;;;;;;;;;5107279;28;20343;-59
2022/07/15 06:34:04;;;;;;;0.20;0.20;;;;;;;;;;5104642;28;20339;-59
2022/07/15 06:36:51;;;;;;;0.20;0.20;;;;;;;;;;5106652;28;20241;-60
2022/07/15 06:39:40;;;;;;;0.30;0.30;;;;;;;;;;5108007;28;20250;-59
2022/07/15 06:42:27;;;;;;;0.10;0.10;;;;;;;;;;5105460;28;20209;-63
2022/07/15 06:45:14;;;;;;;0.30;0.20;;;;;;;;;;5107292;28;20206;-59
2022/07/15 06:48:01;;;;;;;0.20;0.20;;;;;;;;;;5107324;28;20251;-59
2022/07/15 06:50:48;;;;;;;0.30;0.30;;;;;;;;;;5104700;28;20202;-56
2022/07/15 06:53:35;;;;;;;0.20;0.20;;;;;;;;;;5111841;28;20217;-57
2022/07/15 06:56:24;;;;;;;0.30;0.30;;;;;;;;;;5112368;28;20276;-57
2022/07/15 06:59:11;;;;;;;0.30;0.28;;;;;;;;;;5108940;28;20537;-58
2022/07/15 07:01:58;;;;;;;0.30;0.30;;;;;;;;;;5109539;28;20243;-55
2022/07/15 07:04:45;;;;;;;0.55;0.30;;;;;;;;;;5109310;28;20342;-55
2022/07/15 07:07:32;;;;;;;0.20;0.20;;;;;;;;;;5111769;28;20221;-56
2022/07/15 07:10:19;;;;;;;1.85;0.30;;;;;;;;;;5111407;28;20202;-55
2022/07/15 07:13:07;;;;;;;0.47;0.40;;;;;;;;;;5110927;28;20221;-55
2022/07/15 07:15:54;;;;;;;0.10;0.10;;;;;;;;;;5108897;28;20664;-56
2022/07/15 07:18:41;;;;;;;0.32;0.22;;;;;;;;;;5110878;28;20575;-56
2022/07/15 07:21:28;;;;;;;0.25;0.17;;;;;;;;;;5111617;28;20213;-56
2022/07/15 07:24:15;;;;;;;0.40;0.38;;;;;;;;;;5101792;28;20229;-58
2022/07/15 07:27:02;;;;;;;5.88;0.20;;;;;;;;;;5108591;28;20206;-57
2022/07/15 07:29:51;;;;;;;0.30;0.20;;;;;;;;;;5109886;28;20224;-59
2022/07/15 07:32:38;;;;;;;0.20;0.20;;;;;;;;;;5109749;28;20815;-58
2022/07/15 07:35:25;;;;;;;0.20;0.20;;;;;;;;;;5107412;28;20206;-58
2022/07/15 07:38:12;;;;;;;0.38;0.30;;;;;;;;;;5110415;28;20300;-58
2022/07/15 07:40:59;;;;;;;0.30;0.20;;;;;;;;;;5111314;28;20201;-56
2022/07/15 07:43:46;;;;;;;0.30;0.30;;;;;;;;;;5109968;28;20285;-56
2022/07/15 07:46:35;;;;;;;0.28;0.25;;;;;;;;;;5110006;28;20190;-56
2022/07/15 07:49:22;;;;;;;0.28;0.28;;;;;;;;;;5110439;28;20206;-58
2022/07/15 07:52:09;;;;;;;0.40;0.20;;;;;;;;;;5110817;28;20259;-58
2022/07/15 07:54:56;;;;;;;0.30;0.17;;;;;;;;;;5110766;28;20205;-58
2022/07/15 07:57:50;;;;;;;1.15;0.15;;;;;;;;;;5109403;28;20210;-58
2022/07/15 08:00:37;;;;;;;0.20;0.20;;;;;;;;;;5110320;28;20216;-58
2022/07/15 08:03:27;;;;;;;0.10;0.10;;;;;;;;;;5108544;28;20213;-58
2022/07/15 08:06:14;;;;;;;0.20;0.20;;;;;;;;;;5110571;28;20222;-58
2022/07/15 08:09:01;;;;;;;0.30;0.30;;;;;;;;;;5109446;28;20218;-58
2022/07/15 08:11:48;;;;;;;0.20;0.20;;;;;;;;;;5106430;28;20619;-57
2022/07/15 08:14:35;;;;;;;0.43;0.20;;;;;;;;;;5110519;28;20216;-58
2022/07/15 08:17:22;;;;;;;0.17;0.17;;;;;;;;;;5108812;28;20213;-58
2022/07/15 08:20:13;;;;;;;0.25;0.10;;;;;;;;;;5109126;28;20210;-58
2022/07/15 08:23:00;;;;;;;0.17;0.17;;;;;;;;;;5107002;28;20660;-58
2022/07/15 08:25:49;;;;;;;0.38;0.15;;;;;;;;;;5108835;28;20737;-58
2022/07/15 08:28:36;;;;;;;0.10;0.10;;;;;;;;;;5106507;28;20201;-57
2022/07/15 08:31:23;;;;;;;0.20;0.20;;;;;;;;;;5110259;28;20206;-58
2022/07/15 08:34:10;;;;;;;0.30;0.30;;;;;;;;;;5109903;28;20261;-58
2022/07/15 08:36:58;;;;;;;0.20;0.20;;;;;;;;;;5098310;28;20697;-58
2022/07/15 08:39:45;;;;;;;0.25;0.25;;;;;;;;;;5088799;28;20237;-58
2022/07/15 08:42:33;;;;;;;0.20;0.20;;;;;;;;;;5088776;28;20201;-56
2022/07/15 08:45:20;;;;;;;0.20;0.10;;;;;;;;;;5086913;28;20206;-56
2022/07/15 08:48:08;;;;;;;0.30;0.30;;;;;;;;;;5089014;28;20217;-56
2022/07/15 08:50:55;;;;;;;0.20;0.20;;;;;;;;;;5085830;28;20685;-56
2022/07/15 08:53:44;;;;;;;0.30;0.28;;;;;;;;;;5087756;28;20237;-56
2022/07/15 08:56:33;;;;;;;0.28;0.20;;;;;;;;;;5087755;28;20213;-55
2022/07/15 08:59:20;;;;;;;0.10;0.10;;;;;;;;;;5089118;28;20213;-56
2022/07/15 09:02:08;;;;;;;0.00;0.00;;;;;;;;;;5086043;28;20202;-57
2022/07/15 09:05:21;;;;;;;0.20;0.20;;;;;;;;;;5086575;28;20576;-56
2022/07/15 09:08:11;;;;;;;0.38;0.22;;;;;;;;;;5088290;28;20277;-56
2022/07/15 09:11:00;;;;;;;0.20;0.20;;;;;;;;;;5087679;28;20701;-56
2022/07/15 09:13:47;;;;;;;0.32;0.10;;;;;;;;;;5087291;28;20230;-56
2022/07/15 09:16:34;;;;;;;0.30;0.20;;;;;;;;;;5087677;28;20234;-56
2022/07/15 09:19:21;;;;;;;0.20;0.20;;;;;;;;;;5085816;28;20226;-56
2022/07/15 09:22:08;;;;;;;0.15;0.15;;;;;;;;;;5088724;28;20322;-57
2022/07/15 09:25:04;;;;;;;0.20;0.20;;;;;;;;;;5087736;28;20663;-56
2022/07/15 09:27:52;;;;;;;0.22;0.22;;;;;;;;;;5086167;28;20202;-56
2022/07/15 09:33:45;;;;;;;0.35;0.30;;;;;;;;;;5088373;28;20222;-56
2022/07/15 09:36:33;;;;;;;0.73;0.47;;;;;;;;;;5088431;28;20265;-56
2022/07/15 09:39:21;;;;;;;0.43;0.10;;;;;;;;;;5088028;28;20207;-57
2022/07/15 09:42:08;;;;;;;0.30;0.30;;;;;;;;;;5087866;28;20214;-57
2022/07/15 09:45:19;;;;;;;0.20;0.15;;;;;;;;;;5086792;28;20756;-56
2022/07/15 09:48:07;;;;;;;0.10;0.10;;;;;;;;;;5087658;28;20199;-56
2022/07/15 09:50:59;;;;;;;0.20;0.10;;;;;;;;;;5088785;28;20242;-57
2022/07/15 09:53:47;;;;;;;0.30;0.10;;;;;;;;;;5088339;28;20382;-57
2022/07/15 09:56:34;;;;;;;0.20;0.20;;;;;;;;;;5085750;28;20198;-57
2022/07/15 09:59:21;;;;;;;0.20;0.20;;;;;;;;;;5088579;28;20214;-58
2022/07/15 10:02:10;;;;;;;0.10;0.10;;;;;;;;;;5085913;28;20411;-57
2022/07/15 10:04:57;;;;;;;0.30;0.30;;;;;;;;;;5087199;28;20199;-57
2022/07/15 10:07:45;;;;;;;0.70;0.20;;;;;;;;;;5087955;28;20217;-56
2022/07/15 10:10:33;;;;;;;0.35;0.30;;;;;;;;;;5086650;28;20666;-57
2022/07/15 10:13:35;;;;;;;0.20;0.20;;;;;;;;;;5087748;28;20226;-57
2022/07/15 10:16:37;;;;;;;0.20;0.20;;;;;;;;;;5087445;28;20205;-57
2022/07/15 10:19:50;;;;;;;0.93;0.15;;;;;;;;;;5084933;28;20314;-56
2022/07/15 10:22:48;;;;;;;0.22;0.20;;;;;;;;;;5085917;28;20225;-57
2022/07/15 10:25:52;;;;;;;0.22;0.22;;;;;;;;;;5087372;28;20230;-58
2022/07/15 10:28:54;;;;;;;0.25;0.25;;;;;;;;;;5091250;28;20331;-58
2022/07/15 10:31:41;;;;;;;0.28;0.28;;;;;;;;;;5091335;28;20210;-58
2022/07/15 10:34:35;;;;;;;0.20;0.20;;;;;;;;;;5090642;28;20237;-57
2022/07/15 10:37:22;;;;;;;0.30;0.30;;;;;;;;;;5092339;28;20238;-57
2022/07/15 10:40:09;;;;;;;0.32;0.30;;;;;;;;;;5088780;28;20199;-58
2022/07/15 10:43:01;;;;;;;0.20;0.20;;;;;;;;;;5087602;28;20211;-58
2022/07/15 10:46:04;;;;;;;0.35;0.20;;;;;;;;;;5088842;28;20202;-57
2022/07/15 10:48:53;;;;;;;0.28;0.28;;;;;;;;;;5087859;28;20530;-56
2022/07/15 10:51:48;;;;;;;0.30;0.30;;;;;;;;;;5091286;28;20729;-58
2022/07/15 10:54:51;;;;;;;0.20;0.20;;;;;;;;;;5089181;28;20690;-57
2022/07/15 10:57:54;;;;;;;0.35;0.35;;;;;;;;;;5089222;28;20217;-58
2022/07/15 11:00:41;;;;;;;0.20;0.20;;;;;;;;;;5088301;28;20206;-58
2022/07/15 11:03:28;;;;;;;0.30;0.30;;;;;;;;;;5091491;28;20548;-57
2022/07/15 11:06:15;;;;;;;0.15;0.15;;;;;;;;;;5090246;28;20230;-57
2022/07/15 11:09:03;;;;;;;0.28;0.28;;;;;;;;;;5085894;28;20244;-58
2022/07/15 11:11:51;;;;;;;0.22;0.22;;;;;;;;;;5090550;28;20354;-57
2022/07/15 11:14:44;;;;;;;1.02;0.20;;;;;;;;;;5091069;28;20307;-57
2022/07/15 11:17:40;;;;;;;0.30;0.30;;;;;;;;;;5090658;28;20199;-57
2022/07/15 11:20:30;;;;;;;0.30;0.30;;;;;;;;;;5091351;28;20206;-57
2022/07/15 11:23:20;;;;;;;0.38;0.38;;;;;;;;;;5091360;28;20317;-57
2022/07/15 11:26:08;;;;;;;0.30;0.30;;;;;;;;;;5090862;28;20206;-57
2022/07/15 11:28:57;;;;;;;0.40;0.38;;;;;;;;;;5088274;28;20583;-57
2022/07/15 11:31:44;;;;;;;0.22;0.20;;;;;;;;;;5088929;28;20697;-57
2022/07/15 11:34:39;;;;;;;0.20;0.20;;;;;;;;;;5090204;28;20794;-57
2022/07/15 11:37:28;;;;;;;0.63;0.40;;;;;;;;;;5103684;28;20258;-57
2022/07/15 11:46:25;;;;;;;1.15;0.40;;;;;;;;;;5111245;28;20568;-56
2022/07/15 11:49:25;;;;;;;0.32;0.32;;;;;;;;;;5110850;28;20225;-57
2022/07/15 11:52:22;;;;;;;0.20;0.20;;;;;;;;;;5111014;28;20206;-57
2022/07/15 11:55:09;;;;;;;0.20;0.20;;;;;;;;;;5111228;28;20270;-57
2022/07/15 11:57:57;;;;;;;0.20;0.20;;;;;;;;;;5109824;28;20202;-58
2022/07/15 12:00:50;;;;;;;0.22;0.22;;;;;;;;;;5108323;28;20204;-57
2022/07/15 12:03:41;;;;;;;0.63;0.32;;;;;;;;;;5111065;28;20674;-56
2022/07/15 12:06:30;;;;;;;0.20;0.20;;;;;;;;;;5110464;28;20226;-57
2022/07/15 12:09:17;;;;;;;0.32;0.30;;;;;;;;;;5108265;28;20814;-57
2022/07/15 12:12:04;;;;;;;0.20;0.20;;;;;;;;;;5109731;28;20534;-57
2022/07/15 12:14:52;;;;;;;1.08;0.40;;;;;;;;;;5109772;28;20232;-58
2022/07/15 12:17:42;;;;;;;0.38;0.32;;;;;;;;;;5109882;28;20233;-57
2022/07/15 12:20:29;;;;;;;0.20;0.20;;;;;;;;;;5110742;28;20201;-57
2022/07/15 12:23:18;;;;;;;0.50;0.38;;;;;;;;;;5107026;28;20210;-57
2022/07/15 12:26:08;;;;;;;0.30;0.30;;;;;;;;;;5109624;28;20708;-57
2022/07/15 12:28:56;;;;;;;0.35;0.20;;;;;;;;;;5109137;28;20220;-57
2022/07/15 12:31:51;;;;;;;0.30;0.20;;;;;;;;;;5108917;28;20632;-57
2022/07/15 12:34:54;;;;;;;0.30;0.20;;;;;;;;;;5110011;28;20305;-57
2022/07/15 12:37:49;;;;;;;0.30;0.20;;;;;;;;;;5090739;28;20367;-59
2022/07/15 12:40:36;;;;;;;0.20;0.20;;;;;;;;;;5090454;28;20202;-57
2022/07/15 12:43:46;;;;;;;0.40;0.25;;;;;;;;;;5089143;28;20218;-57
2022/07/15 12:46:51;;;;;;;0.47;0.20;;;;;;;;;;5089825;28;20210;-57
2022/07/15 12:49:45;;;;;;;1.02;0.30;;;;;;;;;;5087653;28;20212;-57
2022/07/15 12:52:36;;;;;;;0.38;0.20;;;;;;;;;;5088261;28;20292;-58
2022/07/15 12:55:24;;;;;;;0.20;0.20;;;;;;;;;;5088022;28;20232;-57
2022/07/15 12:58:14;;;;;;;0.45;0.20;;;;;;;;;;5089050;28;20580;-57
2022/07/15 13:01:14;;;;;;;0.22;0.22;;;;;;;;;;5086796;28;20672;-57
2022/07/15 13:04:01;;;;;;;0.20;0.20;;;;;;;;;;5088566;28;20550;-57
2022/07/15 13:06:47;;;;;;;0.25;0.25;;;;;;;;;;5088888;28;20230;-57
2022/07/15 13:09:36;;;;;;;2.80;0.73;;;;;;;;;;5085346;28;20213;-57
2022/07/15 13:12:25;;;;;;;0.68;0.40;;;;;;;;;;5087921;28;20230;-57
2022/07/15 13:15:12;;;;;;;0.30;0.30;;;;;;;;;;5089140;28;20709;-58
2022/07/15 13:18:00;;;;;;;0.52;0.35;;;;;;;;;;5088604;28;20220;-57
2022/07/15 13:20:47;;;;;;;0.20;0.20;;;;;;;;;;5088411;28;20212;-57
2022/07/15 13:23:35;;;;;;;0.45;0.30;;;;;;;;;;5088858;28;20208;-57
2022/07/15 13:26:23;;;;;;;0.20;0.20;;;;;;;;;;5086597;28;20248;-58
2022/07/15 13:29:10;;;;;;;0.32;0.20;;;;;;;;;;5088949;28;20213;-57
2022/07/15 13:31:57;;;;;;;0.20;0.20;;;;;;;;;;5088631;28;20251;-57
2022/07/15 13:34:44;;;;;;;0.32;0.30;;;;;;;;;;5088635;28;20232;-57
2022/07/15 13:37:31;;;;;;;0.45;0.15;;;;;;;;;;5104229;28;20239;-57
2022/07/15 13:40:18;;;;;;;0.20;0.20;;;;;;;;;;5109115;28;20593;-57
2022/07/15 13:43:07;;;;;;;0.28;0.28;;;;;;;;;;5108154;28;20216;-57
2022/07/15 13:45:55;;;;;;;0.17;0.17;;;;;;;;;;5107582;28;20193;-57
2022/07/15 13:48:42;;;;;;;0.20;0.20;;;;;;;;;;5108638;28;20201;-57
2022/07/15 13:51:28;;;;;;;0.17;0.17;;;;;;;;;;5106585;28;20198;-57
2022/07/15 13:54:15;;;;;;;0.20;0.20;;;;;;;;;;5108116;28;20278;-57
2022/07/15 13:57:02;;;;;;;0.20;0.20;;;;;;;;;;5107084;28;20694;-57
2022/07/15 13:59:51;;;;;;;0.40;0.40;;;;;;;;;;5108606;28;20680;-56
2022/07/15 14:02:39;;;;;;;0.20;0.20;;;;;;;;;;5108435;28;20213;-57
2022/07/15 14:05:26;;;;;;;0.60;0.30;;;;;;;;;;5106017;28;20257;-56
2022/07/15 14:08:13;;;;;;;0.20;0.13;;;;;;;;;;5107328;28;20218;-57
2022/07/15 14:11:00;;;;;;;0.10;0.10;;;;;;;;;;5104407;28;20205;-57
2022/07/15 14:13:47;;;;;;;0.40;0.17;;;;;;;;;;5106275;28;20209;-57
2022/07/15 14:16:35;;;;;;;0.20;0.20;;;;;;;;;;5107633;28;20206;-59
2022/07/15 14:19:22;;;;;;;0.10;0.10;;;;;;;;;;5107833;28;20206;-57
2022/07/15 14:22:09;;;;;;;0.20;0.20;;;;;;;;;;5108483;28;20198;-57
2022/07/15 14:24:56;;;;;;;0.40;0.40;;;;;;;;;;5106286;28;20202;-57
2022/07/15 14:27:43;;;;;;;0.20;0.20;;;;;;;;;;5108051;28;20216;-57
2022/07/15 14:30:30;;;;;;;0.28;0.10;;;;;;;;;;5107017;28;20203;-57
2022/07/15 14:33:19;;;;;;;0.50;0.30;;;;;;;;;;5109204;28;20205;-57
2022/07/15 14:36:06;;;;;;;0.32;0.20;;;;;;;;;;5103610;28;20242;-58
2022/07/15 14:38:53;;;;;;;0.43;0.40;;;;;;;;;;5088412;28;20207;-58
2022/07/15 14:41:40;;;;;;;0.28;0.20;;;;;;;;;;5085393;28;20206;-58
2022/07/15 14:44:27;;;;;;;0.50;0.28;;;;;;;;;;5087924;28;20203;-57
2022/07/15 14:47:14;;;;;;;0.25;0.25;;;;;;;;;;5087392;28;20260;-57
2022/07/15 14:50:02;;;;;;;0.20;0.20;;;;;;;;;;5088555;28;20209;-57
2022/07/15 14:52:49;;;;;;;0.20;0.20;;;;;;;;;;5087054;28;20203;-58
2022/07/15 14:55:36;;;;;;;0.43;0.28;;;;;;;;;;5088202;28;20239;-57
2022/07/15 14:58:23;;;;;;;1.20;0.47;;;;;;;;;;5086208;28;20207;-57
2022/07/15 15:01:10;;;;;;;0.17;0.13;;;;;;;;;;5087744;28;20232;-57
2022/07/15 15:03:57;;;;;;;0.20;0.10;;;;;;;;;;5086094;28;20203;-57
2022/07/15 15:06:45;;;;;;;0.52;0.40;;;;;;;;;;5085003;28;20225;-58
2022/07/15 15:09:32;;;;;;;0.20;0.20;;;;;;;;;;5085787;28;20214;-57
2022/07/15 15:12:19;;;;;;;0.52;0.30;;;;;;;;;;5087773;28;20210;-58
2022/07/15 15:15:08;;;;;;;0.40;0.30;;;;;;;;;;5089417;28;20240;-58
2022/07/15 15:17:55;;;;;;;0.20;0.15;;;;;;;;;;5090466;28;20206;-57
2022/07/15 15:20:42;;;;;;;0.20;0.20;;;;;;;;;;5091025;28;20214;-58
2022/07/15 15:23:30;;;;;;;0.30;0.30;;;;;;;;;;5091537;28;20207;-58
2022/07/15 15:26:25;;;;;;;1.67;0.43;;;;;;;;;;5089671;28;20275;-57
2022/07/15 15:29:12;;;;;;;0.40;0.30;;;;;;;;;;5088565;28;20277;-57
2022/07/15 15:32:00;;;;;;;0.40;0.40;;;;;;;;;;5089959;28;20283;-57
2022/07/15 15:34:47;;;;;;;0.40;0.40;;;;;;;;;;5091480;28;20292;-57
2022/07/15 15:37:34;;;;;;;0.52;0.52;;;;;;;;;;5103832;28;20395;-57
2022/07/15 15:40:23;;;;;;;0.35;0.32;;;;;;;;;;5110171;28;20239;-57
2022/07/15 15:43:11;;;;;;;1.48;0.57;;;;;;;;;;5110453;28;20206;-58
2022/07/15 15:45:59;;;;;;;0.60;0.60;;;;;;;;;;5104863;28;20267;-59
2022/07/15 15:48:46;;;;;;;0.75;0.60;;;;;;;;;;5109704;28;20689;-58
2022/07/15 15:51:33;;;;;;;0.43;0.43;;;;;;;;;;5109264;28;20696;-57
2022/07/15 15:54:20;;;;;;;0.32;0.32;;;;;;;;;;5110439;28;20680;-57
2022/07/15 15:57:09;;;;;;;1.17;0.47;;;;;;;;;;5111593;28;20201;-58
2022/07/15 15:59:55;;;;;;;0.32;0.22;;;;;;;;;;5079935;28;20210;-58
2022/07/15 16:02:42;;;;;;;0.43;0.40;;;;;;;;;;5078368;28;20234;-58
2022/07/15 16:05:30;;;;;;;0.50;0.50;;;;;;;;;;5071155;28;20220;-58
2022/07/15 16:08:17;;;;;;;0.70;0.70;;;;;;;;;;5090217;28;20304;-58
2022/07/15 16:11:04;;;;;;;0.22;0.22;;;;;;;;;;5090296;28;20202;-57
2022/07/15 16:13:52;;;;;;;0.40;0.40;;;;;;;;;;5079915;28;20211;-57
2022/07/15 16:16:40;;;;;;;0.85;0.45;;;;;;;;;;5081699;28;20287;-58
2022/07/15 16:19:27;;;;;;;0.93;0.50;;;;;;;;;;5086615;28;20202;-57
2022/07/15 16:25:18;;;;;;;0.55;0.47;;;;;;;;;;5069884;28;20204;-58
2022/07/15 16:28:10;;;;;;;0.38;0.38;;;;;;;;;;5088642;28;20202;-58
2022/07/15 16:30:58;;;;;;;0.47;0.47;;;;;;;;;;5091197;28;20206;-57
2022/07/15 16:33:45;;;;;;;0.65;0.52;;;;;;;;;;5090295;28;20210;-58
2022/07/15 16:36:32;;;;;;;0.47;0.47;;;;;;;;;;5087063;28;20616;-58
2022/07/15 16:39:19;;;;;;;0.30;0.30;;;;;;;;;;5089804;28;20307;-57
2022/07/15 16:42:06;;;;;;;0.30;0.30;;;;;;;;;;5088990;28;20198;-58
2022/07/15 16:44:53;;;;;;;0.55;0.35;;;;;;;;;;5088524;28;20623;-58
2022/07/15 16:47:41;;;;;;;0.30;0.30;;;;;;;;;;5089816;28;20419;-57
2022/07/15 16:50:28;;;;;;;0.40;0.40;;;;;;;;;;5090228;28;20775;-58
2022/07/15 16:53:15;;;;;;;0.70;0.50;;;;;;;;;;5089021;28;20209;-57
2022/07/15 16:56:02;;;;;;;0.60;0.45;;;;;;;;;;5109312;28;20232;-57
2022/07/15 16:58:49;;;;;;;0.52;0.32;;;;;;;;;;5088632;28;20213;-57
2022/07/15 17:01:36;;;;;;;1.25;0.73;;;;;;;;;;5089536;28;20303;-57
2022/07/15 17:04:25;;;;;;;0.40;0.40;;;;;;;;;;5088826;28;20208;-58
2022/07/15 17:07:13;;;;;;;0.50;0.50;;;;;;;;;;5089920;28;20220;-57